sensor_id;sensor_type;location;lat;lon;timestamp;P1;durP1;ratioP1;P2;durP2;ratioP2
72882;SDS011;61017;37.812;-122.286;2022-11-20T00:00:45;7.70;;;3.05;;
72882;SDS011;61017;37.812;-122.286;2022-11-20T00:02:35;5.40;;;2.53;;
72882;SDS011;61017;37.812;-122.286;2022-11-20T00:04:25;4.43;;;2.83;;
72882;SDS011;61017;37.812;-122.286;2022-11-20T00:06:16;4.45;;;2.85;;
72882;SDS011;61017;37.812;-122.286;2022-11-20T00:08:07;6.35;;;2.85;;
72882;SDS011;61017;37.812;-122.286;2022-11-20T00:10:01;5.82;;;2.63;;
72882;SDS011;61017;37.812;-122.286;2022-11-20T00:11:51;5.63;;;3.10;;
72882;SDS011;61017;37.812;-122.286;2022-11-20T00:13:45;8.40;;;3.13;;
72882;SDS011;61017;37.812;-122.286;2022-11-20T00:15:37;9.13;;;3.03;;
72882;SDS011;61017;37.812;-122.286;2022-11-20T00:17:28;5.55;;;2.90;;
72882;SDS011;61017;37.812;-122.286;2022-11-20T00:19:18;4.78;;;2.80;;
72882;SDS011;61017;37.812;-122.286;2022-11-20T00:21:10;5.72;;;2.67;;
72882;SDS011;61017;37.812;-122.286;2022-11-20T00:23:06;6.43;;;3.15;;
72882;SDS011;61017;37.812;-122.286;2022-11-20T00:24:57;6.03;;;2.85;;
72882;SDS011;61017;37.812;-122.286;2022-11-20T00:29:02;6.03;;;2.90;;
72882;SDS011;61017;37.812;-122.286;2022-11-20T00:31:05;4.78;;;2.63;;
72882;SDS011;61017;37.812;-122.286;2022-11-20T00:32:57;8.70;;;3.15;;
72882;SDS011;61017;37.812;-122.286;2022-11-20T00:34:47;10.82;;;3.15;;
72882;SDS011;61017;37.812;-122.286;2022-11-20T00:36:43;9.63;;;3.75;;
72882;SDS011;61017;37.812;-122.286;2022-11-20T00:38:35;9.93;;;3.40;;
72882;SDS011;61017;37.812;-122.286;2022-11-20T00:40:28;9.77;;;3.30;;
72882;SDS011;61017;37.812;-122.286;2022-11-20T00:42:18;13.40;;;3.60;;
72882;SDS011;61017;37.812;-122.286;2022-11-20T00:44:09;8.80;;;3.22;;
72882;SDS011;61017;37.812;-122.286;2022-11-20T00:46:00;9.75;;;3.38;;
72882;SDS011;61017;37.812;-122.286;2022-11-20T00:47:51;8.75;;;3.30;;
72882;SDS011;61017;37.812;-122.286;2022-11-20T00:49:41;8.50;;;3.50;;
72882;SDS011;61017;37.812;-122.286;2022-11-20T00:51:31;8.48;;;3.53;;
72882;SDS011;61017;37.812;-122.286;2022-11-20T00:53:21;7.82;;;3.28;;
72882;SDS011;61017;37.812;-122.286;2022-11-20T00:55:11;11.00;;;3.17;;
72882;SDS011;61017;37.812;-122.286;2022-11-20T00:57:05;7.45;;;3.17;;
72882;SDS011;61017;37.812;-122.286;2022-11-20T00:58:55;7.90;;;3.30;;
72882;SDS011;61017;37.812;-122.286;2022-11-20T01:00:48;8.57;;;3.15;;
72882;SDS011;61017;37.812;-122.286;2022-11-20T01:02:42;7.68;;;3.20;;
72882;SDS011;61017;37.812;-122.286;2022-11-20T01:04:32;5.32;;;2.78;;
72882;SDS011;61017;37.812;-122.286;2022-11-20T01:06:26;13.63;;;4.00;;
72882;SDS011;61017;37.812;-122.286;2022-11-20T01:08:19;5.43;;;2.88;;
72882;SDS011;61017;37.812;-122.286;2022-11-20T01:10:08;11.07;;;3.38;;
72882;SDS011;61017;37.812;-122.286;2022-11-20T01:12:00;8.23;;;3.22;;
72882;SDS011;61017;37.812;-122.286;2022-11-20T01:13:51;8.00;;;3.20;;
72882;SDS011;61017;37.812;-122.286;2022-11-20T01:15:43;9.38;;;3.08;;
72882;SDS011;61017;37.812;-122.286;2022-11-20T01:17:33;7.43;;;3.47;;
72882;SDS011;61017;37.812;-122.286;2022-11-20T01:19:23;10.30;;;3.08;;
72882;SDS011;61017;37.812;-122.286;2022-11-20T01:21:14;10.48;;;3.13;;
72882;SDS011;61017;37.812;-122.286;2022-11-20T01:23:06;7.35;;;3.47;;
72882;SDS011;61017;37.812;-122.286;2022-11-20T01:25:06;5.85;;;2.90;;
72882;SDS011;61017;37.812;-122.286;2022-11-20T01:27:01;5.07;;;3.20;;
72882;SDS011;61017;37.812;-122.286;2022-11-20T01:28:55;7.90;;;3.40;;
72882;SDS011;61017;37.812;-122.286;2022-11-20T01:30:56;5.75;;;3.17;;
72882;SDS011;61017;37.812;-122.286;2022-11-20T01:32:50;8.32;;;3.38;;
72882;SDS011;61017;37.812;-122.286;2022-11-20T01:34:40;12.57;;;3.67;;
72882;SDS011;61017;37.812;-122.286;2022-11-20T01:36:51;7.93;;;3.78;;
72882;SDS011;61017;37.812;-122.286;2022-11-20T01:39:22;9.70;;;3.97;;
72882;SDS011;61017;37.812;-122.286;2022-11-20T01:41:28;11.57;;;4.05;;
72882;SDS011;61017;37.812;-122.286;2022-11-20T01:43:25;12.45;;;4.03;;
72882;SDS011;61017;37.812;-122.286;2022-11-20T01:47:49;13.15;;;4.47;;
72882;SDS011;61017;37.812;-122.286;2022-11-20T01:49:45;7.30;;;3.58;;
72882;SDS011;61017;37.812;-122.286;2022-11-20T01:51:45;9.40;;;4.15;;
72882;SDS011;61017;37.812;-122.286;2022-11-20T01:53:49;8.30;;;3.75;;
72882;SDS011;61017;37.812;-122.286;2022-11-20T01:55:41;7.38;;;3.50;;
72882;SDS011;61017;37.812;-122.286;2022-11-20T01:57:35;7.13;;;3.92;;
72882;SDS011;61017;37.812;-122.286;2022-11-20T01:59:30;11.25;;;3.47;;
72882;SDS011;61017;37.812;-122.286;2022-11-20T02:01:33;7.30;;;4.10;;
72882;SDS011;61017;37.812;-122.286;2022-11-20T02:03:27;6.43;;;3.35;;
72882;SDS011;61017;37.812;-122.286;2022-11-20T02:07:22;11.85;;;4.80;;
72882;SDS011;61017;37.812;-122.286;2022-11-20T02:09:15;9.15;;;4.13;;
72882;SDS011;61017;37.812;-122.286;2022-11-20T02:11:12;8.68;;;3.67;;
72882;SDS011;61017;37.812;-122.286;2022-11-20T02:13:03;11.48;;;4.00;;
72882;SDS011;61017;37.812;-122.286;2022-11-20T02:14:53;8.88;;;4.03;;
72882;SDS011;61017;37.812;-122.286;2022-11-20T02:16:46;5.45;;;3.60;;
72882;SDS011;61017;37.812;-122.286;2022-11-20T02:18:37;7.95;;;4.13;;
72882;SDS011;61017;37.812;-122.286;2022-11-20T02:20:28;7.40;;;3.70;;
72882;SDS011;61017;37.812;-122.286;2022-11-20T02:22:19;7.28;;;3.63;;
72882;SDS011;61017;37.812;-122.286;2022-11-20T02:24:17;7.50;;;4.03;;
72882;SDS011;61017;37.812;-122.286;2022-11-20T02:26:09;10.63;;;4.50;;
72882;SDS011;61017;37.812;-122.286;2022-11-20T02:28:02;9.73;;;3.95;;
72882;SDS011;61017;37.812;-122.286;2022-11-20T02:29:56;10.43;;;4.35;;
72882;SDS011;61017;37.812;-122.286;2022-11-20T02:31:51;8.05;;;4.28;;
72882;SDS011;61017;37.812;-122.286;2022-11-20T02:33:42;7.40;;;4.03;;
72882;SDS011;61017;37.812;-122.286;2022-11-20T02:37:22;9.57;;;4.50;;
72882;SDS011;61017;37.812;-122.286;2022-11-20T02:39:17;8.23;;;4.22;;
72882;SDS011;61017;37.812;-122.286;2022-11-20T02:41:09;10.93;;;4.20;;
72882;SDS011;61017;37.812;-122.286;2022-11-20T02:42:59;8.25;;;4.20;;
72882;SDS011;61017;37.812;-122.286;2022-11-20T02:44:49;7.05;;;3.95;;
72882;SDS011;61017;37.812;-122.286;2022-11-20T02:46:39;5.90;;;3.95;;
72882;SDS011;61017;37.812;-122.286;2022-11-20T02:48:29;7.78;;;4.13;;
72882;SDS011;61017;37.812;-122.286;2022-11-20T02:50:21;7.75;;;4.07;;
72882;SDS011;61017;37.812;-122.286;2022-11-20T02:52:11;7.05;;;4.10;;
72882;SDS011;61017;37.812;-122.286;2022-11-20T02:54:01;10.30;;;4.40;;
72882;SDS011;61017;37.812;-122.286;2022-11-20T02:55:51;10.95;;;4.45;;
72882;SDS011;61017;37.812;-122.286;2022-11-20T02:57:42;7.35;;;4.20;;
72882;SDS011;61017;37.812;-122.286;2022-11-20T02:59:33;7.90;;;4.32;;
72882;SDS011;61017;37.812;-122.286;2022-11-20T03:01:23;10.52;;;4.45;;
72882;SDS011;61017;37.812;-122.286;2022-11-20T03:03:13;12.45;;;4.63;;
72882;SDS011;61017;37.812;-122.286;2022-11-20T03:05:03;7.63;;;4.30;;
72882;SDS011;61017;37.812;-122.286;2022-11-20T03:06:53;7.28;;;4.22;;
72882;SDS011;61017;37.812;-122.286;2022-11-20T03:08:46;7.15;;;4.20;;
72882;SDS011;61017;37.812;-122.286;2022-11-20T03:10:36;7.80;;;4.35;;
72882;SDS011;61017;37.812;-122.286;2022-11-20T03:12:26;10.70;;;4.38;;
72882;SDS011;61017;37.812;-122.286;2022-11-20T03:14:17;11.73;;;4.35;;
72882;SDS011;61017;37.812;-122.286;2022-11-20T03:16:08;9.02;;;4.43;;
72882;SDS011;61017;37.812;-122.286;2022-11-20T03:18:05;8.73;;;4.43;;
72882;SDS011;61017;37.812;-122.286;2022-11-20T03:19:59;12.40;;;4.22;;
72882;SDS011;61017;37.812;-122.286;2022-11-20T03:21:49;7.35;;;3.95;;
72882;SDS011;61017;37.812;-122.286;2022-11-20T03:23:42;8.80;;;4.07;;
72882;SDS011;61017;37.812;-122.286;2022-11-20T03:25:32;5.72;;;4.10;;
72882;SDS011;61017;37.812;-122.286;2022-11-20T03:27:22;7.25;;;4.18;;
72882;SDS011;61017;37.812;-122.286;2022-11-20T03:29:12;10.02;;;4.55;;
72882;SDS011;61017;37.812;-122.286;2022-11-20T03:31:12;13.27;;;4.40;;
72882;SDS011;61017;37.812;-122.286;2022-11-20T03:33:05;7.65;;;4.30;;
72882;SDS011;61017;37.812;-122.286;2022-11-20T03:34:54;8.23;;;4.60;;
72882;SDS011;61017;37.812;-122.286;2022-11-20T03:36:44;7.00;;;3.90;;
72882;SDS011;61017;37.812;-122.286;2022-11-20T03:38:35;7.75;;;4.32;;
72882;SDS011;61017;37.812;-122.286;2022-11-20T03:40:25;9.65;;;4.18;;
72882;SDS011;61017;37.812;-122.286;2022-11-20T03:42:17;9.85;;;4.20;;
72882;SDS011;61017;37.812;-122.286;2022-11-20T03:44:09;7.50;;;4.13;;
72882;SDS011;61017;37.812;-122.286;2022-11-20T03:46:04;7.28;;;4.20;;
72882;SDS011;61017;37.812;-122.286;2022-11-20T03:49:46;7.38;;;4.22;;
72882;SDS011;61017;37.812;-122.286;2022-11-20T03:51:37;6.38;;;4.25;;
72882;SDS011;61017;37.812;-122.286;2022-11-20T03:53:27;6.55;;;4.00;;
72882;SDS011;61017;37.812;-122.286;2022-11-20T03:55:19;8.13;;;4.30;;
72882;SDS011;61017;37.812;-122.286;2022-11-20T03:57:12;10.05;;;4.15;;
72882;SDS011;61017;37.812;-122.286;2022-11-20T03:59:03;5.70;;;3.80;;
72882;SDS011;61017;37.812;-122.286;2022-11-20T04:00:53;6.63;;;4.00;;
72882;SDS011;61017;37.812;-122.286;2022-11-20T04:02:43;10.73;;;4.22;;
72882;SDS011;61017;37.812;-122.286;2022-11-20T04:04:36;11.15;;;4.25;;
72882;SDS011;61017;37.812;-122.286;2022-11-20T04:06:28;7.15;;;4.25;;
72882;SDS011;61017;37.812;-122.286;2022-11-20T04:08:22;8.75;;;4.20;;
72882;SDS011;61017;37.812;-122.286;2022-11-20T04:10:15;6.40;;;3.75;;
72882;SDS011;61017;37.812;-122.286;2022-11-20T04:12:07;6.60;;;3.90;;
72882;SDS011;61017;37.812;-122.286;2022-11-20T04:14:01;8.60;;;4.05;;
72882;SDS011;61017;37.812;-122.286;2022-11-20T04:15:56;8.15;;;3.78;;
72882;SDS011;61017;37.812;-122.286;2022-11-20T04:17:46;9.63;;;3.92;;
72882;SDS011;61017;37.812;-122.286;2022-11-20T04:19:36;5.90;;;4.00;;
72882;SDS011;61017;37.812;-122.286;2022-11-20T04:21:26;6.15;;;3.63;;
72882;SDS011;61017;37.812;-122.286;2022-11-20T04:23:23;5.68;;;3.17;;
72882;SDS011;61017;37.812;-122.286;2022-11-20T04:25:17;10.73;;;3.67;;
72882;SDS011;61017;37.812;-122.286;2022-11-20T04:27:07;6.20;;;3.70;;
72882;SDS011;61017;37.812;-122.286;2022-11-20T04:28:58;7.72;;;3.88;;
72882;SDS011;61017;37.812;-122.286;2022-11-20T04:30:49;8.75;;;4.07;;
72882;SDS011;61017;37.812;-122.286;2022-11-20T04:32:40;5.35;;;3.42;;
72882;SDS011;61017;37.812;-122.286;2022-11-20T04:34:30;7.70;;;3.95;;
72882;SDS011;61017;37.812;-122.286;2022-11-20T04:36:22;9.20;;;3.75;;
72882;SDS011;61017;37.812;-122.286;2022-11-20T04:38:14;12.48;;;3.70;;
72882;SDS011;61017;37.812;-122.286;2022-11-20T04:40:05;7.68;;;3.53;;
72882;SDS011;61017;37.812;-122.286;2022-11-20T04:41:55;6.88;;;4.15;;
72882;SDS011;61017;37.812;-122.286;2022-11-20T04:43:46;6.60;;;3.63;;
72882;SDS011;61017;37.812;-122.286;2022-11-20T04:45:37;4.97;;;3.70;;
72882;SDS011;61017;37.812;-122.286;2022-11-20T04:47:27;7.88;;;3.40;;
72882;SDS011;61017;37.812;-122.286;2022-11-20T04:49:17;9.38;;;4.03;;
72882;SDS011;61017;37.812;-122.286;2022-11-20T04:51:10;6.65;;;3.53;;
72882;SDS011;61017;37.812;-122.286;2022-11-20T04:53:01;5.22;;;3.30;;
72882;SDS011;61017;37.812;-122.286;2022-11-20T04:54:51;7.47;;;3.95;;
72882;SDS011;61017;37.812;-122.286;2022-11-20T04:56:41;5.72;;;3.33;;
72882;SDS011;61017;37.812;-122.286;2022-11-20T04:58:32;7.55;;;3.50;;
72882;SDS011;61017;37.812;-122.286;2022-11-20T05:00:23;6.50;;;3.47;;
72882;SDS011;61017;37.812;-122.286;2022-11-20T05:02:17;6.43;;;4.00;;
72882;SDS011;61017;37.812;-122.286;2022-11-20T05:04:07;5.30;;;3.67;;
72882;SDS011;61017;37.812;-122.286;2022-11-20T05:06:00;8.30;;;3.40;;
72882;SDS011;61017;37.812;-122.286;2022-11-20T05:07:50;8.50;;;4.30;;
72882;SDS011;61017;37.812;-122.286;2022-11-20T05:09:40;5.15;;;3.38;;
72882;SDS011;61017;37.812;-122.286;2022-11-20T05:11:31;6.63;;;3.72;;
72882;SDS011;61017;37.812;-122.286;2022-11-20T05:13:21;6.80;;;3.50;;
72882;SDS011;61017;37.812;-122.286;2022-11-20T05:15:13;8.07;;;3.80;;
72882;SDS011;61017;37.812;-122.286;2022-11-20T05:17:09;6.78;;;3.60;;
72882;SDS011;61017;37.812;-122.286;2022-11-20T05:19:01;7.10;;;4.00;;
72882;SDS011;61017;37.812;-122.286;2022-11-20T05:21:01;6.82;;;3.60;;
72882;SDS011;61017;37.812;-122.286;2022-11-20T05:22:52;6.35;;;3.55;;
72882;SDS011;61017;37.812;-122.286;2022-11-20T05:24:45;10.73;;;4.18;;
72882;SDS011;61017;37.812;-122.286;2022-11-20T05:26:35;11.85;;;3.63;;
72882;SDS011;61017;37.812;-122.286;2022-11-20T05:28:25;12.93;;;4.32;;
72882;SDS011;61017;37.812;-122.286;2022-11-20T05:30:16;10.75;;;3.63;;
72882;SDS011;61017;37.812;-122.286;2022-11-20T05:32:06;10.68;;;3.17;;
72882;SDS011;61017;37.812;-122.286;2022-11-20T05:33:57;10.68;;;3.80;;
72882;SDS011;61017;37.812;-122.286;2022-11-20T05:35:50;8.77;;;4.00;;
72882;SDS011;61017;37.812;-122.286;2022-11-20T05:37:40;11.20;;;3.87;;
72882;SDS011;61017;37.812;-122.286;2022-11-20T05:39:31;15.07;;;3.70;;
72882;SDS011;61017;37.812;-122.286;2022-11-20T05:41:28;10.43;;;4.30;;
72882;SDS011;61017;37.812;-122.286;2022-11-20T05:43:18;9.07;;;4.15;;
72882;SDS011;61017;37.812;-122.286;2022-11-20T05:45:08;8.82;;;3.70;;
72882;SDS011;61017;37.812;-122.286;2022-11-20T05:46:58;7.82;;;3.80;;
72882;SDS011;61017;37.812;-122.286;2022-11-20T05:48:49;10.40;;;4.20;;
72882;SDS011;61017;37.812;-122.286;2022-11-20T05:50:39;7.70;;;3.75;;
72882;SDS011;61017;37.812;-122.286;2022-11-20T05:52:31;11.23;;;3.83;;
72882;SDS011;61017;37.812;-122.286;2022-11-20T05:54:24;9.40;;;4.20;;
72882;SDS011;61017;37.812;-122.286;2022-11-20T05:56:15;9.95;;;3.85;;
72882;SDS011;61017;37.812;-122.286;2022-11-20T05:58:07;8.35;;;4.03;;
72882;SDS011;61017;37.812;-122.286;2022-11-20T05:59:56;11.85;;;4.43;;
72882;SDS011;61017;37.812;-122.286;2022-11-20T06:01:47;6.82;;;3.65;;
72882;SDS011;61017;37.812;-122.286;2022-11-20T06:03:37;8.25;;;4.07;;
72882;SDS011;61017;37.812;-122.286;2022-11-20T06:05:28;7.47;;;4.10;;
72882;SDS011;61017;37.812;-122.286;2022-11-20T06:07:18;7.18;;;3.95;;
72882;SDS011;61017;37.812;-122.286;2022-11-20T06:09:08;7.35;;;4.30;;
72882;SDS011;61017;37.812;-122.286;2022-11-20T06:11:02;8.40;;;4.20;;
72882;SDS011;61017;37.812;-122.286;2022-11-20T06:12:58;12.02;;;4.53;;
72882;SDS011;61017;37.812;-122.286;2022-11-20T06:14:49;8.40;;;4.47;;
72882;SDS011;61017;37.812;-122.286;2022-11-20T06:16:39;8.35;;;4.10;;
72882;SDS011;61017;37.812;-122.286;2022-11-20T06:18:29;11.80;;;4.47;;
72882;SDS011;61017;37.812;-122.286;2022-11-20T06:20:20;8.35;;;4.57;;
72882;SDS011;61017;37.812;-122.286;2022-11-20T06:22:15;7.15;;;4.25;;
72882;SDS011;61017;37.812;-122.286;2022-11-20T06:24:05;9.82;;;4.32;;
72882;SDS011;61017;37.812;-122.286;2022-11-20T06:25:55;12.13;;;4.00;;
72882;SDS011;61017;37.812;-122.286;2022-11-20T06:27:49;7.53;;;4.55;;
72882;SDS011;61017;37.812;-122.286;2022-11-20T06:29:41;11.70;;;4.85;;
72882;SDS011;61017;37.812;-122.286;2022-11-20T06:31:30;7.78;;;4.65;;
72882;SDS011;61017;37.812;-122.286;2022-11-20T06:33:21;7.75;;;4.47;;
72882;SDS011;61017;37.812;-122.286;2022-11-20T06:35:11;7.88;;;4.78;;
72882;SDS011;61017;37.812;-122.286;2022-11-20T06:37:01;6.88;;;4.70;;
72882;SDS011;61017;37.812;-122.286;2022-11-20T06:38:51;8.98;;;4.65;;
72882;SDS011;61017;37.812;-122.286;2022-11-20T06:40:48;8.10;;;4.35;;
72882;SDS011;61017;37.812;-122.286;2022-11-20T06:42:44;7.30;;;4.68;;
72882;SDS011;61017;37.812;-122.286;2022-11-20T06:44:37;7.18;;;4.40;;
72882;SDS011;61017;37.812;-122.286;2022-11-20T06:46:27;7.03;;;4.93;;
72882;SDS011;61017;37.812;-122.286;2022-11-20T06:48:17;8.48;;;4.72;;
72882;SDS011;61017;37.812;-122.286;2022-11-20T06:50:06;9.45;;;4.82;;
72882;SDS011;61017;37.812;-122.286;2022-11-20T06:51:57;8.02;;;5.22;;
72882;SDS011;61017;37.812;-122.286;2022-11-20T06:53:47;9.07;;;5.25;;
72882;SDS011;61017;37.812;-122.286;2022-11-20T06:55:46;8.80;;;4.70;;
72882;SDS011;61017;37.812;-122.286;2022-11-20T06:57:38;8.60;;;5.28;;
72882;SDS011;61017;37.812;-122.286;2022-11-20T06:59:29;9.23;;;5.07;;
72882;SDS011;61017;37.812;-122.286;2022-11-20T07:01:18;9.45;;;5.40;;
72882;SDS011;61017;37.812;-122.286;2022-11-20T07:03:09;9.02;;;5.40;;
72882;SDS011;61017;37.812;-122.286;2022-11-20T07:05:00;8.88;;;5.78;;
72882;SDS011;61017;37.812;-122.286;2022-11-20T07:06:50;9.15;;;5.15;;
72882;SDS011;61017;37.812;-122.286;2022-11-20T07:08:40;9.35;;;4.78;;
72882;SDS011;61017;37.812;-122.286;2022-11-20T07:10:30;10.07;;;5.13;;
72882;SDS011;61017;37.812;-122.286;2022-11-20T07:21:04;8.13;;;5.45;;
72882;SDS011;61017;37.812;-122.286;2022-11-20T07:23:21;10.05;;;5.25;;
72882;SDS011;61017;37.812;-122.286;2022-11-20T07:31:58;10.15;;;5.93;;
72882;SDS011;61017;37.812;-122.286;2022-11-20T07:33:48;8.98;;;5.75;;
72882;SDS011;61017;37.812;-122.286;2022-11-20T07:35:38;9.70;;;5.43;;
72882;SDS011;61017;37.812;-122.286;2022-11-20T07:37:33;9.07;;;6.00;;
72882;SDS011;61017;37.812;-122.286;2022-11-20T07:39:24;15.07;;;5.82;;
72882;SDS011;61017;37.812;-122.286;2022-11-20T07:41:14;8.75;;;5.50;;
72882;SDS011;61017;37.812;-122.286;2022-11-20T07:43:04;12.10;;;5.93;;
72882;SDS011;61017;37.812;-122.286;2022-11-20T07:44:54;10.07;;;5.40;;
72882;SDS011;61017;37.812;-122.286;2022-11-20T07:46:46;9.98;;;5.80;;
72882;SDS011;61017;37.812;-122.286;2022-11-20T07:48:36;10.02;;;5.78;;
72882;SDS011;61017;37.812;-122.286;2022-11-20T07:50:26;11.35;;;6.05;;
72882;SDS011;61017;37.812;-122.286;2022-11-20T07:52:16;9.10;;;5.68;;
72882;SDS011;61017;37.812;-122.286;2022-11-20T07:54:06;11.05;;;6.13;;
72882;SDS011;61017;37.812;-122.286;2022-11-20T07:55:59;11.05;;;6.35;;
72882;SDS011;61017;37.812;-122.286;2022-11-20T07:57:53;11.18;;;6.10;;
72882;SDS011;61017;37.812;-122.286;2022-11-20T08:04:39;9.50;;;6.10;;
72882;SDS011;61017;37.812;-122.286;2022-11-20T08:06:30;9.35;;;5.93;;
72882;SDS011;61017;37.812;-122.286;2022-11-20T08:12:46;10.85;;;6.22;;
72882;SDS011;61017;37.812;-122.286;2022-11-20T08:14:52;11.77;;;6.30;;
72882;SDS011;61017;37.812;-122.286;2022-11-20T08:19:02;10.40;;;6.47;;
72882;SDS011;61017;37.812;-122.286;2022-11-20T08:21:00;12.95;;;6.53;;
72882;SDS011;61017;37.812;-122.286;2022-11-20T08:23:00;10.45;;;6.30;;
72882;SDS011;61017;37.812;-122.286;2022-11-20T08:25:00;10.98;;;6.55;;
72882;SDS011;61017;37.812;-122.286;2022-11-20T08:27:08;9.60;;;6.00;;
72882;SDS011;61017;37.812;-122.286;2022-11-20T08:29:04;10.95;;;6.95;;
72882;SDS011;61017;37.812;-122.286;2022-11-20T08:31:19;10.80;;;6.18;;
72882;SDS011;61017;37.812;-122.286;2022-11-20T08:35:39;10.43;;;5.70;;
72882;SDS011;61017;37.812;-122.286;2022-11-20T08:37:50;10.25;;;6.30;;
72882;SDS011;61017;37.812;-122.286;2022-11-20T08:42:22;10.45;;;6.40;;
72882;SDS011;61017;37.812;-122.286;2022-11-20T08:44:31;9.23;;;6.07;;
72882;SDS011;61017;37.812;-122.286;2022-11-20T08:46:39;11.15;;;6.00;;
72882;SDS011;61017;37.812;-122.286;2022-11-20T08:48:35;10.57;;;6.03;;
72882;SDS011;61017;37.812;-122.286;2022-11-20T08:50:31;9.35;;;6.25;;
72882;SDS011;61017;37.812;-122.286;2022-11-20T08:52:21;10.63;;;6.00;;
72882;SDS011;61017;37.812;-122.286;2022-11-20T08:54:17;10.52;;;6.25;;
72882;SDS011;61017;37.812;-122.286;2022-11-20T08:56:13;16.85;;;6.25;;
72882;SDS011;61017;37.812;-122.286;2022-11-20T08:58:23;10.02;;;6.28;;
72882;SDS011;61017;37.812;-122.286;2022-11-20T09:00:17;10.23;;;6.22;;
72882;SDS011;61017;37.812;-122.286;2022-11-20T09:02:35;12.35;;;6.57;;
72882;SDS011;61017;37.812;-122.286;2022-11-20T09:04:39;10.50;;;6.25;;
72882;SDS011;61017;37.812;-122.286;2022-11-20T09:06:31;9.90;;;5.83;;
72882;SDS011;61017;37.812;-122.286;2022-11-20T09:08:25;10.70;;;6.60;;
72882;SDS011;61017;37.812;-122.286;2022-11-20T09:10:15;10.88;;;6.10;;
72882;SDS011;61017;37.812;-122.286;2022-11-20T09:12:06;8.98;;;6.18;;
72882;SDS011;61017;37.812;-122.286;2022-11-20T09:13:56;10.10;;;6.28;;
72882;SDS011;61017;37.812;-122.286;2022-11-20T09:15:46;13.40;;;6.63;;
72882;SDS011;61017;37.812;-122.286;2022-11-20T09:17:50;9.13;;;5.80;;
72882;SDS011;61017;37.812;-122.286;2022-11-20T09:19:47;10.60;;;6.60;;
72882;SDS011;61017;37.812;-122.286;2022-11-20T09:21:40;11.88;;;6.53;;
72882;SDS011;61017;37.812;-122.286;2022-11-20T09:23:39;10.30;;;6.55;;
72882;SDS011;61017;37.812;-122.286;2022-11-20T09:25:37;9.80;;;6.10;;
72882;SDS011;61017;37.812;-122.286;2022-11-20T09:27:35;9.90;;;6.20;;
72882;SDS011;61017;37.812;-122.286;2022-11-20T09:29:31;11.35;;;6.00;;
72882;SDS011;61017;37.812;-122.286;2022-11-20T09:31:35;9.02;;;6.20;;
72882;SDS011;61017;37.812;-122.286;2022-11-20T09:33:45;10.63;;;6.22;;
72882;SDS011;61017;37.812;-122.286;2022-11-20T09:35:40;8.48;;;5.97;;
72882;SDS011;61017;37.812;-122.286;2022-11-20T09:37:48;8.80;;;6.22;;
72882;SDS011;61017;37.812;-122.286;2022-11-20T09:39:44;12.77;;;6.63;;
72882;SDS011;61017;37.812;-122.286;2022-11-20T09:46:50;9.60;;;6.20;;
72882;SDS011;61017;37.812;-122.286;2022-11-20T09:51:46;10.25;;;6.38;;
72882;SDS011;61017;37.812;-122.286;2022-11-20T09:56:06;9.57;;;6.28;;
72882;SDS011;61017;37.812;-122.286;2022-11-20T09:58:25;8.75;;;6.07;;
72882;SDS011;61017;37.812;-122.286;2022-11-20T10:00:42;10.57;;;6.40;;
72882;SDS011;61017;37.812;-122.286;2022-11-20T10:15:38;9.30;;;6.00;;
72882;SDS011;61017;37.812;-122.286;2022-11-20T10:24:33;11.10;;;6.00;;
72882;SDS011;61017;37.812;-122.286;2022-11-20T10:33:35;10.80;;;6.25;;
72882;SDS011;61017;37.812;-122.286;2022-11-20T10:35:35;9.65;;;6.47;;
72882;SDS011;61017;37.812;-122.286;2022-11-20T10:37:34;10.70;;;6.72;;
72882;SDS011;61017;37.812;-122.286;2022-11-20T10:41:47;11.98;;;6.30;;
72882;SDS011;61017;37.812;-122.286;2022-11-20T10:46:05;9.57;;;6.35;;
72882;SDS011;61017;37.812;-122.286;2022-11-20T10:48:17;8.80;;;6.13;;
72882;SDS011;61017;37.812;-122.286;2022-11-20T10:50:35;10.35;;;6.72;;
72882;SDS011;61017;37.812;-122.286;2022-11-20T10:55:23;10.50;;;6.32;;
72882;SDS011;61017;37.812;-122.286;2022-11-20T10:57:54;11.13;;;6.28;;
72882;SDS011;61017;37.812;-122.286;2022-11-20T11:00:08;11.48;;;6.70;;
72882;SDS011;61017;37.812;-122.286;2022-11-20T11:02:15;11.25;;;6.90;;
72882;SDS011;61017;37.812;-122.286;2022-11-20T11:06:36;10.32;;;6.10;;
72882;SDS011;61017;37.812;-122.286;2022-11-20T11:08:41;10.95;;;6.57;;
72882;SDS011;61017;37.812;-122.286;2022-11-20T11:11:23;10.10;;;6.35;;
72882;SDS011;61017;37.812;-122.286;2022-11-20T11:13:27;10.57;;;6.65;;
72882;SDS011;61017;37.812;-122.286;2022-11-20T11:15:29;11.15;;;6.88;;
72882;SDS011;61017;37.812;-122.286;2022-11-20T11:17:27;10.60;;;6.47;;
72882;SDS011;61017;37.812;-122.286;2022-11-20T11:19:22;9.52;;;6.35;;
72882;SDS011;61017;37.812;-122.286;2022-11-20T11:21:13;9.45;;;6.43;;
72882;SDS011;61017;37.812;-122.286;2022-11-20T11:23:29;10.35;;;6.32;;
72882;SDS011;61017;37.812;-122.286;2022-11-20T11:25:30;11.73;;;6.85;;
72882;SDS011;61017;37.812;-122.286;2022-11-20T11:27:25;9.73;;;6.40;;
72882;SDS011;61017;37.812;-122.286;2022-11-20T11:29:18;11.57;;;6.53;;
72882;SDS011;61017;37.812;-122.286;2022-11-20T11:31:13;9.93;;;6.95;;
72882;SDS011;61017;37.812;-122.286;2022-11-20T11:33:18;11.93;;;7.10;;
72882;SDS011;61017;37.812;-122.286;2022-11-20T11:35:21;10.38;;;6.85;;
72882;SDS011;61017;37.812;-122.286;2022-11-20T11:37:23;10.40;;;6.70;;
72882;SDS011;61017;37.812;-122.286;2022-11-20T11:41:23;11.52;;;6.78;;
72882;SDS011;61017;37.812;-122.286;2022-11-20T11:43:24;10.93;;;6.55;;
72882;SDS011;61017;37.812;-122.286;2022-11-20T11:45:43;11.88;;;7.03;;
72882;SDS011;61017;37.812;-122.286;2022-11-20T11:47:50;10.38;;;6.93;;
72882;SDS011;61017;37.812;-122.286;2022-11-20T11:49:44;10.38;;;7.15;;
72882;SDS011;61017;37.812;-122.286;2022-11-20T11:53:57;12.55;;;6.75;;
72882;SDS011;61017;37.812;-122.286;2022-11-20T11:56:05;15.05;;;7.22;;
72882;SDS011;61017;37.812;-122.286;2022-11-20T12:00:29;12.15;;;6.55;;
72882;SDS011;61017;37.812;-122.286;2022-11-20T12:02:37;13.82;;;6.50;;
72882;SDS011;61017;37.812;-122.286;2022-11-20T12:06:35;10.75;;;6.22;;
72882;SDS011;61017;37.812;-122.286;2022-11-20T12:08:32;14.63;;;6.50;;
72882;SDS011;61017;37.812;-122.286;2022-11-20T12:12:39;12.48;;;6.55;;
72882;SDS011;61017;37.812;-122.286;2022-11-20T12:14:34;11.27;;;6.40;;
72882;SDS011;61017;37.812;-122.286;2022-11-20T12:16:33;13.57;;;6.50;;
72882;SDS011;61017;37.812;-122.286;2022-11-20T12:18:27;12.32;;;6.20;;
72882;SDS011;61017;37.812;-122.286;2022-11-20T12:20:18;11.23;;;6.43;;
72882;SDS011;61017;37.812;-122.286;2022-11-20T12:24:34;14.55;;;6.40;;
72882;SDS011;61017;37.812;-122.286;2022-11-20T12:26:44;12.02;;;6.68;;
72882;SDS011;61017;37.812;-122.286;2022-11-20T12:29:06;10.90;;;6.68;;
72882;SDS011;61017;37.812;-122.286;2022-11-20T12:48:46;10.00;;;6.30;;
72882;SDS011;61017;37.812;-122.286;2022-11-20T13:05:21;9.25;;;6.00;;
72882;SDS011;61017;37.812;-122.286;2022-11-20T13:07:36;11.07;;;6.47;;
72882;SDS011;61017;37.812;-122.286;2022-11-20T13:09:27;11.23;;;6.10;;
72882;SDS011;61017;37.812;-122.286;2022-11-20T13:15:35;11.13;;;6.07;;
72882;SDS011;61017;37.812;-122.286;2022-11-20T13:17:46;10.02;;;6.28;;